createdAt,value
2019-06-26T00:00:42.778Z,10.28
2019-06-26T00:05:48.302Z,9.85
2019-06-26T00:10:53.823Z,9.73
2019-06-26T00:15:59.339Z,10.32
2019-06-26T00:21:04.856Z,10.05
2019-06-26T00:26:10.299Z,10.32
2019-06-26T00:31:15.744Z,9.43
2019-06-26T00:36:21.251Z,9.68
2019-06-26T00:41:26.861Z,10.03
2019-06-26T00:46:32.513Z,9.98
2019-06-26T00:51:38.062Z,9.83
2019-06-26T00:56:43.515Z,9.43
2019-06-26T01:01:49.127Z,9.58
2019-06-26T01:06:54.646Z,9.45
2019-06-26T01:12:00.175Z,10.25
2019-06-26T01:17:05.766Z,10.63
2019-06-26T01:22:11.380Z,9.88
2019-06-26T01:27:16.860Z,10.20
2019-06-26T01:32:22.390Z,10.30
2019-06-26T01:37:27.834Z,10.15
2019-06-26T01:42:33.283Z,10.28
2019-06-26T01:47:38.793Z,10.30
2019-06-26T01:52:44.398Z,10.65
2019-06-26T01:57:49.841Z,11.63
2019-06-26T02:02:55.455Z,10.68
2019-06-26T02:08:00.971Z,11.10
2019-06-26T02:13:06.560Z,11.53
2019-06-26T02:18:29.586Z,11.30
2019-06-26T02:23:35.115Z,11.60
2019-06-26T02:28:40.581Z,11.53
2019-06-26T02:33:46.027Z,11.85
2019-06-26T02:38:51.496Z,11.88
2019-06-26T02:43:57.005Z,12.35
2019-06-26T02:49:02.461Z,11.40
2019-06-26T02:54:08.000Z,11.35
2019-06-26T02:59:13.435Z,11.97
2019-06-26T03:04:18.901Z,13.28
2019-06-26T03:09:24.401Z,12.37
2019-06-26T03:14:29.904Z,11.83
2019-06-26T03:19:35.411Z,12.05
2019-06-26T03:24:40.939Z,12.37
2019-06-26T03:29:46.866Z,10.72
2019-06-26T03:34:52.437Z,12.10
2019-06-26T03:39:57.980Z,12.05
2019-06-26T03:45:04.727Z,13.32
2019-06-26T03:50:10.383Z,14.03
2019-06-26T03:55:16.472Z,13.13
2019-06-26T04:00:40.619Z,13.53
2019-06-26T04:05:46.513Z,14.18
2019-06-26T04:10:52.001Z,13.38
2019-06-26T04:15:57.537Z,14.47
2019-06-26T04:21:03.150Z,12.73
2019-06-26T04:26:08.683Z,12.85
2019-06-26T04:31:14.148Z,13.32
2019-06-26T04:36:19.695Z,15.18
2019-06-26T04:41:25.250Z,12.88
2019-06-26T04:46:30.735Z,14.00
2019-06-26T04:51:36.278Z,16.20
2019-06-26T04:56:41.770Z,17.15
2019-06-26T05:01:47.245Z,19.90
2019-06-26T05:06:52.793Z,19.45
2019-06-26T05:11:58.300Z,19.27
2019-06-26T05:17:03.873Z,18.87
2019-06-26T05:22:09.395Z,18.75
2019-06-26T05:27:14.882Z,17.45
2019-06-26T05:32:20.399Z,17.57
2019-06-26T05:37:25.942Z,16.82
2019-06-26T05:42:31.408Z,16.35
2019-06-26T05:47:36.950Z,17.05
2019-06-26T05:52:43.271Z,17.45
2019-06-26T05:57:48.824Z,15.93
2019-06-26T06:02:54.364Z,14.95
2019-06-26T06:07:59.808Z,14.93
2019-06-26T06:13:05.364Z,16.05
2019-06-26T06:18:10.949Z,14.40
2019-06-26T06:23:18.094Z,16.30
2019-06-26T06:28:23.768Z,14.85
2019-06-26T06:33:29.249Z,15.15
2019-06-26T06:38:34.737Z,14.78
2019-06-26T06:43:40.269Z,13.50
2019-06-26T06:48:45.755Z,13.70
2019-06-26T06:53:51.196Z,15.23
2019-06-26T06:58:56.642Z,13.55
2019-06-26T07:04:02.217Z,12.55
2019-06-26T07:09:08.034Z,12.88
2019-06-26T07:14:13.501Z,13.78
2019-06-26T07:19:19.038Z,12.70
2019-06-26T07:24:24.517Z,12.60
2019-06-26T07:29:30.105Z,13.18
2019-06-26T07:34:35.722Z,12.88
2019-06-26T07:39:41.224Z,13.43
2019-06-26T07:44:46.746Z,11.83
2019-06-26T07:49:52.194Z,11.12
2019-06-26T07:54:57.644Z,11.00
2019-06-26T08:00:03.146Z,10.85
2019-06-26T08:05:10.544Z,11.15
2019-06-26T08:10:16.017Z,11.10
2019-06-26T08:15:21.505Z,10.40
2019-06-26T08:20:26.965Z,10.40
2019-06-26T08:25:32.417Z,9.83
2019-06-26T08:30:37.897Z,10.38
2019-06-26T08:35:43.373Z,10.15
2019-06-26T08:40:48.899Z,9.73
2019-06-26T08:45:54.362Z,10.08
2019-06-26T08:51:00.947Z,9.70
2019-06-26T08:56:06.453Z,10.40
2019-06-26T09:01:11.924Z,9.75
2019-06-26T09:06:17.395Z,9.35
2019-06-26T09:11:22.986Z,9.98
2019-06-26T09:16:28.544Z,9.63
2019-06-26T09:21:34.016Z,8.58
2019-06-26T09:26:39.485Z,9.03
2019-06-26T09:31:44.965Z,9.10
2019-06-26T09:36:50.429Z,9.15
2019-06-26T09:41:55.910Z,8.53
2019-06-26T09:47:01.537Z,8.88
2019-06-26T09:52:07.149Z,7.75
2019-06-26T09:57:12.695Z,9.13
2019-06-26T10:07:43.470Z,8.85
2019-06-26T10:12:48.919Z,8.10
2019-06-26T10:17:54.358Z,8.60
2019-06-26T10:22:59.911Z,8.83
2019-06-26T10:28:05.423Z,8.80
2019-06-26T10:33:10.949Z,9.00
2019-06-26T10:38:16.381Z,8.55
2019-06-26T10:43:21.927Z,8.03
2019-06-26T10:48:27.399Z,8.18
2019-06-26T10:53:32.828Z,8.58
2019-06-26T10:58:38.342Z,7.87
2019-06-26T11:03:43.842Z,8.00
2019-06-26T11:08:49.288Z,8.53
2019-06-26T11:13:54.821Z,8.40
2019-06-26T11:19:00.344Z,8.53
2019-06-26T11:24:05.781Z,8.33
2019-06-26T11:29:11.223Z,8.30
2019-06-26T11:34:16.762Z,8.63
2019-06-26T11:39:22.252Z,7.70
2019-06-26T11:44:27.731Z,7.58
2019-06-26T11:49:33.188Z,8.18
2019-06-26T11:54:38.638Z,7.53
2019-06-26T11:59:44.159Z,7.50
2019-06-26T12:04:49.638Z,7.78
2019-06-26T12:09:55.318Z,7.45
2019-06-26T12:15:00.818Z,7.58
2019-06-26T12:20:18.087Z,6.87
2019-06-26T12:25:14.205Z,6.97
2019-06-26T12:30:19.750Z,7.90
2019-06-26T12:35:25.239Z,7.90
2019-06-26T12:40:31.496Z,7.65
2019-06-26T12:45:37.082Z,7.00
2019-06-26T12:50:42.608Z,7.30
2019-06-26T12:55:48.047Z,7.10
2019-06-26T13:00:53.541Z,7.78
2019-06-26T13:05:59.008Z,7.20
2019-06-26T13:11:04.560Z,7.58
2019-06-26T13:16:09.995Z,6.58
2019-06-26T13:21:15.471Z,8.05
2019-06-26T13:26:21.136Z,7.92
2019-06-26T13:31:26.640Z,7.40
2019-06-26T13:36:32.174Z,7.33
2019-06-26T13:41:37.758Z,7.62
2019-06-26T13:46:43.223Z,7.70
2019-06-26T13:51:49.138Z,7.55
2019-06-26T13:56:54.613Z,7.83
2019-06-26T14:02:00.060Z,7.70
2019-06-26T14:07:08.527Z,7.37
2019-06-26T14:12:12.711Z,8.13
2019-06-26T14:17:18.144Z,7.05
2019-06-26T14:22:23.576Z,7.15
2019-06-26T14:27:29.032Z,7.50
2019-06-26T14:32:34.464Z,8.28
2019-06-26T14:37:39.890Z,8.05
2019-06-26T14:42:45.372Z,8.35
2019-06-26T14:47:50.867Z,7.83
2019-06-26T14:52:56.294Z,8.73
2019-06-26T14:58:01.733Z,8.45
2019-06-26T15:03:07.188Z,9.45
2019-06-26T15:08:12.699Z,8.85
2019-06-26T15:13:18.228Z,8.80
2019-06-26T15:18:23.682Z,8.60
2019-06-26T15:23:29.135Z,8.80
2019-06-26T15:28:34.658Z,8.20
2019-06-26T15:33:40.105Z,8.40
2019-06-26T15:38:45.558Z,8.15
2019-06-26T15:43:51.092Z,8.63
2019-06-26T15:48:56.546Z,8.45
2019-06-26T15:54:02.130Z,11.60
2019-06-26T15:59:07.565Z,12.43
2019-06-26T16:04:13.024Z,14.10
2019-06-26T16:09:18.465Z,16.07
2019-06-26T16:14:23.985Z,16.70
2019-06-26T16:19:31.092Z,15.70
2019-06-26T16:24:36.737Z,15.35
2019-06-26T16:29:42.624Z,14.87
2019-06-26T16:34:48.348Z,15.40
2019-06-26T16:39:54.151Z,13.98
2019-06-26T16:44:59.596Z,14.65
2019-06-26T16:50:06.484Z,13.65
2019-06-26T16:55:12.010Z,12.88
2019-06-26T17:00:18.984Z,12.63
2019-06-26T17:05:24.493Z,11.25
2019-06-26T17:10:30.022Z,12.13
2019-06-26T17:15:35.746Z,12.00
2019-06-26T17:20:41.452Z,12.63
2019-06-26T17:25:46.964Z,11.93
2019-06-26T17:30:53.040Z,10.63
2019-06-26T17:35:58.618Z,13.20
2019-06-26T17:41:04.137Z,14.38
2019-06-26T17:46:09.669Z,14.00
2019-06-26T17:51:15.170Z,15.30
2019-06-26T17:56:20.672Z,14.53
2019-06-26T18:01:26.263Z,14.23
2019-06-26T18:06:31.794Z,15.20
2019-06-26T18:11:37.446Z,13.35
2019-06-26T18:16:42.947Z,14.45
2019-06-26T18:21:48.420Z,14.18
2019-06-26T18:26:53.882Z,14.45
2019-06-26T18:31:59.392Z,14.35
2019-06-26T18:37:04.917Z,13.93
2019-06-26T18:42:10.638Z,13.38
2019-06-26T18:47:17.768Z,14.15
2019-06-26T18:52:23.388Z,14.50
2019-06-26T18:57:28.857Z,14.43
2019-06-26T19:02:34.333Z,13.70
2019-06-26T19:07:39.817Z,14.33
2019-06-26T19:12:45.294Z,13.35
2019-06-26T19:17:50.786Z,14.05
2019-06-26T19:22:56.346Z,13.43
2019-06-26T19:28:01.843Z,14.60
2019-06-26T19:33:07.341Z,13.18
2019-06-26T19:38:12.969Z,13.78
2019-06-26T19:43:18.542Z,14.15
2019-06-26T19:48:24.086Z,13.58
2019-06-26T19:53:29.583Z,13.93
2019-06-26T19:58:35.051Z,13.65
2019-06-26T20:03:40.606Z,14.20
2019-06-26T20:08:54.562Z,13.25
2019-06-26T20:13:53.293Z,15.20
2019-06-26T20:18:58.766Z,14.63
2019-06-26T20:24:04.299Z,14.80
2019-06-26T20:29:09.786Z,14.63
2019-06-26T20:34:15.243Z,14.18
2019-06-26T20:39:20.805Z,15.35
2019-06-26T20:44:26.384Z,13.55
2019-06-26T20:49:31.924Z,14.13
2019-06-26T20:54:37.393Z,14.70
2019-06-26T20:59:42.896Z,14.95
2019-06-26T21:04:48.383Z,14.40
2019-06-26T21:09:54.010Z,13.60
2019-06-26T21:14:59.502Z,12.68
2019-06-26T21:20:06.376Z,13.95
2019-06-26T21:25:19.073Z,13.20
2019-06-26T21:30:20.246Z,13.90
2019-06-26T21:35:25.875Z,13.48
2019-06-26T21:40:31.316Z,13.32
2019-06-26T21:45:36.760Z,12.63
2019-06-26T21:50:42.224Z,12.85
2019-06-26T21:55:47.660Z,13.08
2019-06-26T22:01:10.594Z,13.55
2019-06-26T22:12:04.735Z,13.03
2019-06-26T22:17:10.366Z,13.38
2019-06-26T22:22:16.018Z,13.08
2019-06-26T22:27:21.571Z,12.28
2019-06-26T22:32:27.130Z,14.63
2019-06-26T22:37:32.677Z,13.13
2019-06-26T22:42:38.241Z,13.05
2019-06-26T22:47:43.677Z,12.47
2019-06-26T22:52:50.226Z,13.00
2019-06-26T22:57:55.700Z,12.73
2019-06-26T23:03:01.182Z,11.43
2019-06-26T23:08:06.835Z,12.07
2019-06-26T23:13:12.455Z,12.03
2019-06-26T23:18:17.919Z,11.70
2019-06-26T23:23:23.426Z,11.38
2019-06-26T23:28:28.896Z,11.83
2019-06-26T23:33:34.353Z,12.33
2019-06-26T23:38:39.915Z,11.10
2019-06-26T23:43:45.374Z,10.98
2019-06-26T23:48:50.863Z,11.60
2019-06-26T23:53:56.334Z,11.15
2019-06-26T23:59:01.826Z,11.40
